sensor_id;sensor_type;location;lat;lon;timestamp;P1;durP1;ratioP1;P2;durP2;ratioP2
59492;SDS011;45497;43.996;22.876;2022-12-18T00:01:01;26.45;;;16.90;;
59492;SDS011;45497;43.996;22.876;2022-12-18T00:03:33;23.48;;;15.30;;
59492;SDS011;45497;43.996;22.876;2022-12-18T00:05:59;25.77;;;15.88;;
59492;SDS011;45497;43.996;22.876;2022-12-18T00:08:24;25.48;;;15.73;;
59492;SDS011;45497;43.996;22.876;2022-12-18T00:10:50;25.75;;;16.30;;
59492;SDS011;45497;43.996;22.876;2022-12-18T00:13:15;23.52;;;14.50;;
59492;SDS011;45497;43.996;22.876;2022-12-18T00:15:41;24.53;;;16.43;;
59492;SDS011;45497;43.996;22.876;2022-12-18T00:18:06;25.37;;;16.03;;
59492;SDS011;45497;43.996;22.876;2022-12-18T00:20:35;27.73;;;16.83;;
59492;SDS011;45497;43.996;22.876;2022-12-18T00:23:01;28.83;;;16.88;;
59492;SDS011;45497;43.996;22.876;2022-12-18T00:25:27;26.17;;;15.90;;
59492;SDS011;45497;43.996;22.876;2022-12-18T00:27:52;29.23;;;18.00;;
59492;SDS011;45497;43.996;22.876;2022-12-18T00:30:18;26.63;;;17.15;;
59492;SDS011;45497;43.996;22.876;2022-12-18T00:32:43;30.07;;;17.90;;
59492;SDS011;45497;43.996;22.876;2022-12-18T00:35:09;29.53;;;18.83;;
59492;SDS011;45497;43.996;22.876;2022-12-18T00:37:34;27.90;;;16.67;;
59492;SDS011;45497;43.996;22.876;2022-12-18T00:40:00;29.35;;;18.02;;
59492;SDS011;45497;43.996;22.876;2022-12-18T00:42:26;30.35;;;18.63;;
59492;SDS011;45497;43.996;22.876;2022-12-18T00:45:10;29.48;;;16.92;;
59492;SDS011;45497;43.996;22.876;2022-12-18T00:47:35;27.92;;;17.00;;
59492;SDS011;45497;43.996;22.876;2022-12-18T00:50:01;28.77;;;16.43;;
59492;SDS011;45497;43.996;22.876;2022-12-18T00:52:26;28.57;;;18.40;;
59492;SDS011;45497;43.996;22.876;2022-12-18T00:54:51;28.85;;;17.13;;
59492;SDS011;45497;43.996;22.876;2022-12-18T00:57:17;29.43;;;17.27;;
59492;SDS011;45497;43.996;22.876;2022-12-18T00:59:42;31.60;;;18.87;;
59492;SDS011;45497;43.996;22.876;2022-12-18T01:02:08;29.20;;;17.67;;
59492;SDS011;45497;43.996;22.876;2022-12-18T01:04:34;40.20;;;21.87;;
59492;SDS011;45497;43.996;22.876;2022-12-18T01:06:59;48.57;;;23.43;;
59492;SDS011;45497;43.996;22.876;2022-12-18T01:09:25;32.03;;;19.80;;
59492;SDS011;45497;43.996;22.876;2022-12-18T01:11:51;31.30;;;18.55;;
59492;SDS011;45497;43.996;22.876;2022-12-18T01:14:17;31.80;;;19.25;;
59492;SDS011;45497;43.996;22.876;2022-12-18T01:16:42;31.30;;;19.00;;
59492;SDS011;45497;43.996;22.876;2022-12-18T01:19:08;31.10;;;18.90;;
59492;SDS011;45497;43.996;22.876;2022-12-18T01:21:33;31.80;;;20.00;;
59492;SDS011;45497;43.996;22.876;2022-12-18T01:23:59;29.80;;;17.88;;
59492;SDS011;45497;43.996;22.876;2022-12-18T01:26:25;31.13;;;19.07;;
59492;SDS011;45497;43.996;22.876;2022-12-18T01:28:53;28.83;;;17.90;;
59492;SDS011;45497;43.996;22.876;2022-12-18T01:31:24;28.65;;;16.83;;
59492;SDS011;45497;43.996;22.876;2022-12-18T01:33:52;27.45;;;17.05;;
59492;SDS011;45497;43.996;22.876;2022-12-18T01:36:19;27.92;;;17.98;;
59492;SDS011;45497;43.996;22.876;2022-12-18T01:38:49;28.65;;;16.83;;
59492;SDS011;45497;43.996;22.876;2022-12-18T01:41:15;29.95;;;18.13;;
59492;SDS011;45497;43.996;22.876;2022-12-18T01:46:22;26.90;;;17.10;;
59492;SDS011;45497;43.996;22.876;2022-12-18T01:48:49;26.13;;;16.90;;
59492;SDS011;45497;43.996;22.876;2022-12-18T01:51:18;23.80;;;16.23;;
59492;SDS011;45497;43.996;22.876;2022-12-18T01:53:44;25.77;;;16.80;;
59492;SDS011;45497;43.996;22.876;2022-12-18T01:56:12;22.88;;;14.82;;
59492;SDS011;45497;43.996;22.876;2022-12-18T01:58:43;22.75;;;14.25;;
59492;SDS011;45497;43.996;22.876;2022-12-18T02:01:15;25.20;;;16.05;;
59492;SDS011;45497;43.996;22.876;2022-12-18T02:03:42;24.63;;;14.75;;
59492;SDS011;45497;43.996;22.876;2022-12-18T02:08:48;30.15;;;18.58;;
59492;SDS011;45497;43.996;22.876;2022-12-18T02:18:54;22.80;;;14.20;;
59492;SDS011;45497;43.996;22.876;2022-12-18T02:26:57;25.50;;;15.82;;
59492;SDS011;45497;43.996;22.876;2022-12-18T02:29:31;24.08;;;15.75;;
59492;SDS011;45497;43.996;22.876;2022-12-18T02:32:02;22.85;;;14.73;;
59492;SDS011;45497;43.996;22.876;2022-12-18T02:34:31;25.70;;;15.70;;
59492;SDS011;45497;43.996;22.876;2022-12-18T02:37:02;22.50;;;14.35;;
59492;SDS011;45497;43.996;22.876;2022-12-18T02:39:31;24.42;;;15.60;;
59492;SDS011;45497;43.996;22.876;2022-12-18T02:41:59;25.17;;;15.00;;
59492;SDS011;45497;43.996;22.876;2022-12-18T02:44:27;21.00;;;14.40;;
59492;SDS011;45497;43.996;22.876;2022-12-18T02:46:53;23.53;;;15.63;;
59492;SDS011;45497;43.996;22.876;2022-12-18T02:57:25;26.85;;;16.38;;
59492;SDS011;45497;43.996;22.876;2022-12-18T03:02:53;22.70;;;13.98;;
59492;SDS011;45497;43.996;22.876;2022-12-18T03:05:31;23.08;;;15.15;;
59492;SDS011;45497;43.996;22.876;2022-12-18T03:08:08;25.77;;;16.13;;
59492;SDS011;45497;43.996;22.876;2022-12-18T03:10:41;25.15;;;16.27;;
59492;SDS011;45497;43.996;22.876;2022-12-18T03:13:15;22.38;;;14.20;;
59492;SDS011;45497;43.996;22.876;2022-12-18T03:15:48;21.90;;;14.15;;
59492;SDS011;45497;43.996;22.876;2022-12-18T03:18:17;24.25;;;15.43;;
59492;SDS011;45497;43.996;22.876;2022-12-18T03:20:47;24.80;;;15.55;;
59492;SDS011;45497;43.996;22.876;2022-12-18T03:23:19;23.45;;;14.60;;
59492;SDS011;45497;43.996;22.876;2022-12-18T03:25:47;25.23;;;15.88;;
59492;SDS011;45497;43.996;22.876;2022-12-18T03:28:18;23.20;;;14.93;;
59492;SDS011;45497;43.996;22.876;2022-12-18T03:30:47;26.13;;;16.25;;
59492;SDS011;45497;43.996;22.876;2022-12-18T03:33:16;24.07;;;15.90;;
59492;SDS011;45497;43.996;22.876;2022-12-18T03:35:44;27.27;;;16.47;;
59492;SDS011;45497;43.996;22.876;2022-12-18T03:38:11;24.30;;;15.30;;
59492;SDS011;45497;43.996;22.876;2022-12-18T03:46:18;24.87;;;14.93;;
59492;SDS011;45497;43.996;22.876;2022-12-18T03:49:14;22.75;;;13.40;;
59492;SDS011;45497;43.996;22.876;2022-12-18T03:52:06;23.03;;;14.57;;
59492;SDS011;45497;43.996;22.876;2022-12-18T03:54:36;22.48;;;13.93;;
59492;SDS011;45497;43.996;22.876;2022-12-18T03:57:05;22.10;;;14.00;;
59492;SDS011;45497;43.996;22.876;2022-12-18T03:59:36;24.88;;;15.13;;
59492;SDS011;45497;43.996;22.876;2022-12-18T04:02:04;25.20;;;15.02;;
59492;SDS011;45497;43.996;22.876;2022-12-18T04:04:33;23.52;;;15.02;;
59492;SDS011;45497;43.996;22.876;2022-12-18T04:07:03;23.52;;;14.52;;
59492;SDS011;45497;43.996;22.876;2022-12-18T04:09:29;24.38;;;15.18;;
59492;SDS011;45497;43.996;22.876;2022-12-18T04:11:56;23.65;;;14.38;;
59492;SDS011;45497;43.996;22.876;2022-12-18T04:14:22;23.50;;;15.63;;
59492;SDS011;45497;43.996;22.876;2022-12-18T04:16:47;23.20;;;14.83;;
59492;SDS011;45497;43.996;22.876;2022-12-18T04:19:13;24.00;;;14.88;;
59492;SDS011;45497;43.996;22.876;2022-12-18T04:21:38;22.60;;;14.80;;
59492;SDS011;45497;43.996;22.876;2022-12-18T04:24:04;26.43;;;15.13;;
59492;SDS011;45497;43.996;22.876;2022-12-18T04:26:30;24.77;;;15.53;;
59492;SDS011;45497;43.996;22.876;2022-12-18T04:28:55;24.47;;;15.40;;
59492;SDS011;45497;43.996;22.876;2022-12-18T04:31:21;26.80;;;15.85;;
59492;SDS011;45497;43.996;22.876;2022-12-18T04:33:46;32.15;;;18.52;;
59492;SDS011;45497;43.996;22.876;2022-12-18T04:36:12;26.33;;;16.13;;
59492;SDS011;45497;43.996;22.876;2022-12-18T04:38:37;26.48;;;16.52;;
59492;SDS011;45497;43.996;22.876;2022-12-18T04:41:03;25.27;;;15.07;;
59492;SDS011;45497;43.996;22.876;2022-12-18T04:43:29;24.70;;;14.20;;
59492;SDS011;45497;43.996;22.876;2022-12-18T04:46:01;23.57;;;14.77;;
59492;SDS011;45497;43.996;22.876;2022-12-18T04:48:27;23.65;;;14.13;;
59492;SDS011;45497;43.996;22.876;2022-12-18T04:50:53;23.07;;;14.20;;
59492;SDS011;45497;43.996;22.876;2022-12-18T04:53:18;23.90;;;14.13;;
59492;SDS011;45497;43.996;22.876;2022-12-18T04:55:44;23.27;;;14.00;;
59492;SDS011;45497;43.996;22.876;2022-12-18T04:58:09;22.23;;;14.83;;
59492;SDS011;45497;43.996;22.876;2022-12-18T05:00:35;24.43;;;15.17;;
59492;SDS011;45497;43.996;22.876;2022-12-18T05:03:01;24.25;;;13.98;;
59492;SDS011;45497;43.996;22.876;2022-12-18T05:05:27;22.58;;;12.68;;
59492;SDS011;45497;43.996;22.876;2022-12-18T05:07:53;21.52;;;13.63;;
59492;SDS011;45497;43.996;22.876;2022-12-18T05:10:18;25.27;;;14.45;;
59492;SDS011;45497;43.996;22.876;2022-12-18T05:12:43;24.20;;;15.37;;
59492;SDS011;45497;43.996;22.876;2022-12-18T05:15:26;23.50;;;14.57;;
59492;SDS011;45497;43.996;22.876;2022-12-18T05:17:53;23.25;;;14.18;;
59492;SDS011;45497;43.996;22.876;2022-12-18T05:20:18;25.63;;;14.90;;
59492;SDS011;45497;43.996;22.876;2022-12-18T05:22:44;23.38;;;14.60;;
59492;SDS011;45497;43.996;22.876;2022-12-18T05:25:09;22.53;;;14.17;;
59492;SDS011;45497;43.996;22.876;2022-12-18T05:27:35;25.20;;;16.47;;
59492;SDS011;45497;43.996;22.876;2022-12-18T05:30:00;26.43;;;14.03;;
59492;SDS011;45497;43.996;22.876;2022-12-18T05:32:26;23.50;;;14.48;;
59492;SDS011;45497;43.996;22.876;2022-12-18T05:34:51;24.73;;;15.40;;
59492;SDS011;45497;43.996;22.876;2022-12-18T05:37:16;28.60;;;16.67;;
59492;SDS011;45497;43.996;22.876;2022-12-18T05:39:42;25.40;;;15.25;;
59492;SDS011;45497;43.996;22.876;2022-12-18T05:42:08;24.10;;;15.52;;
59492;SDS011;45497;43.996;22.876;2022-12-18T05:44:34;27.50;;;16.42;;
59492;SDS011;45497;43.996;22.876;2022-12-18T05:47:00;24.70;;;14.57;;
59492;SDS011;45497;43.996;22.876;2022-12-18T05:49:26;27.73;;;16.33;;
59492;SDS011;45497;43.996;22.876;2022-12-18T05:51:51;25.52;;;15.80;;
59492;SDS011;45497;43.996;22.876;2022-12-18T05:54:17;26.83;;;16.37;;
59492;SDS011;45497;43.996;22.876;2022-12-18T05:56:42;29.10;;;16.27;;
59492;SDS011;45497;43.996;22.876;2022-12-18T05:59:08;27.53;;;15.37;;
59492;SDS011;45497;43.996;22.876;2022-12-18T06:01:34;25.27;;;15.43;;
59492;SDS011;45497;43.996;22.876;2022-12-18T06:04:00;28.30;;;15.83;;
59492;SDS011;45497;43.996;22.876;2022-12-18T06:06:26;26.58;;;16.08;;
59492;SDS011;45497;43.996;22.876;2022-12-18T06:08:52;27.25;;;15.15;;
59492;SDS011;45497;43.996;22.876;2022-12-18T06:11:19;28.60;;;15.40;;
59492;SDS011;45497;43.996;22.876;2022-12-18T06:13:49;24.75;;;14.23;;
59492;SDS011;45497;43.996;22.876;2022-12-18T06:16:15;24.25;;;14.70;;
59492;SDS011;45497;43.996;22.876;2022-12-18T06:18:41;26.80;;;15.00;;
59492;SDS011;45497;43.996;22.876;2022-12-18T06:21:06;23.87;;;14.27;;
59492;SDS011;45497;43.996;22.876;2022-12-18T06:23:32;26.20;;;15.40;;
59492;SDS011;45497;43.996;22.876;2022-12-18T06:25:57;26.48;;;14.70;;
59492;SDS011;45497;43.996;22.876;2022-12-18T06:28:22;27.40;;;15.27;;
59492;SDS011;45497;43.996;22.876;2022-12-18T06:30:48;25.20;;;15.57;;
59492;SDS011;45497;43.996;22.876;2022-12-18T06:33:15;25.52;;;15.68;;
59492;SDS011;45497;43.996;22.876;2022-12-18T06:35:41;24.27;;;14.45;;
59492;SDS011;45497;43.996;22.876;2022-12-18T06:38:07;26.80;;;14.97;;
59492;SDS011;45497;43.996;22.876;2022-12-18T06:40:32;25.15;;;14.77;;
59492;SDS011;45497;43.996;22.876;2022-12-18T06:42:58;27.33;;;16.07;;
59492;SDS011;45497;43.996;22.876;2022-12-18T06:45:24;26.07;;;14.77;;
59492;SDS011;45497;43.996;22.876;2022-12-18T06:47:49;28.50;;;16.60;;
59492;SDS011;45497;43.996;22.876;2022-12-18T06:50:15;25.23;;;15.45;;
59492;SDS011;45497;43.996;22.876;2022-12-18T06:52:40;26.00;;;16.10;;
59492;SDS011;45497;43.996;22.876;2022-12-18T06:55:07;24.70;;;14.68;;
59492;SDS011;45497;43.996;22.876;2022-12-18T06:57:33;26.40;;;15.73;;
59492;SDS011;45497;43.996;22.876;2022-12-18T06:59:59;25.88;;;14.55;;
59492;SDS011;45497;43.996;22.876;2022-12-18T07:02:24;24.92;;;14.73;;
59492;SDS011;45497;43.996;22.876;2022-12-18T07:04:50;25.97;;;14.93;;
59492;SDS011;45497;43.996;22.876;2022-12-18T07:07:15;24.53;;;14.93;;
59492;SDS011;45497;43.996;22.876;2022-12-18T07:09:41;24.05;;;15.65;;
59492;SDS011;45497;43.996;22.876;2022-12-18T07:12:06;25.33;;;14.77;;
59492;SDS011;45497;43.996;22.876;2022-12-18T07:14:33;25.52;;;14.75;;
59492;SDS011;45497;43.996;22.876;2022-12-18T07:16:59;23.58;;;14.73;;
59492;SDS011;45497;43.996;22.876;2022-12-18T07:19:24;23.97;;;14.23;;
59492;SDS011;45497;43.996;22.876;2022-12-18T07:21:50;24.80;;;15.20;;
59492;SDS011;45497;43.996;22.876;2022-12-18T07:24:16;23.55;;;13.15;;
59492;SDS011;45497;43.996;22.876;2022-12-18T07:26:41;26.20;;;15.40;;
59492;SDS011;45497;43.996;22.876;2022-12-18T07:29:07;23.17;;;14.50;;
59492;SDS011;45497;43.996;22.876;2022-12-18T07:31:32;28.55;;;17.73;;
59492;SDS011;45497;43.996;22.876;2022-12-18T07:33:58;24.37;;;14.67;;
59492;SDS011;45497;43.996;22.876;2022-12-18T07:36:23;24.57;;;14.63;;
59492;SDS011;45497;43.996;22.876;2022-12-18T07:38:49;26.87;;;15.80;;
59492;SDS011;45497;43.996;22.876;2022-12-18T07:41:16;24.20;;;14.82;;
59492;SDS011;45497;43.996;22.876;2022-12-18T07:43:43;22.50;;;13.32;;
59492;SDS011;45497;43.996;22.876;2022-12-18T07:46:10;28.42;;;16.85;;
59492;SDS011;45497;43.996;22.876;2022-12-18T07:48:38;21.60;;;12.60;;
59492;SDS011;45497;43.996;22.876;2022-12-18T07:51:05;21.10;;;12.55;;
59492;SDS011;45497;43.996;22.876;2022-12-18T07:53:32;23.60;;;12.80;;
59492;SDS011;45497;43.996;22.876;2022-12-18T07:56:00;17.83;;;11.25;;
59492;SDS011;45497;43.996;22.876;2022-12-18T07:58:28;18.95;;;12.50;;
59492;SDS011;45497;43.996;22.876;2022-12-18T08:01:01;20.00;;;11.83;;
59492;SDS011;45497;43.996;22.876;2022-12-18T08:03:31;19.08;;;10.63;;
59492;SDS011;45497;43.996;22.876;2022-12-18T08:06:00;15.00;;;9.27;;
59492;SDS011;45497;43.996;22.876;2022-12-18T08:08:26;17.98;;;10.90;;
59492;SDS011;45497;43.996;22.876;2022-12-18T08:10:52;16.65;;;10.55;;
59492;SDS011;45497;43.996;22.876;2022-12-18T08:13:17;16.50;;;9.73;;
59492;SDS011;45497;43.996;22.876;2022-12-18T08:15:43;16.65;;;9.70;;
59492;SDS011;45497;43.996;22.876;2022-12-18T08:18:08;18.50;;;10.87;;
59492;SDS011;45497;43.996;22.876;2022-12-18T08:20:34;16.00;;;9.37;;
59492;SDS011;45497;43.996;22.876;2022-12-18T08:22:59;19.63;;;10.93;;
59492;SDS011;45497;43.996;22.876;2022-12-18T08:25:25;17.77;;;10.37;;
59492;SDS011;45497;43.996;22.876;2022-12-18T08:27:50;16.63;;;10.17;;
59492;SDS011;45497;43.996;22.876;2022-12-18T08:30:16;16.52;;;10.00;;
59492;SDS011;45497;43.996;22.876;2022-12-18T08:32:41;15.77;;;9.50;;
59492;SDS011;45497;43.996;22.876;2022-12-18T08:35:07;18.93;;;11.97;;
59492;SDS011;45497;43.996;22.876;2022-12-18T08:37:33;18.08;;;10.38;;
59492;SDS011;45497;43.996;22.876;2022-12-18T08:39:59;14.07;;;8.23;;
59492;SDS011;45497;43.996;22.876;2022-12-18T08:42:25;16.20;;;8.88;;
59492;SDS011;45497;43.996;22.876;2022-12-18T08:45:09;18.40;;;10.70;;
59492;SDS011;45497;43.996;22.876;2022-12-18T08:47:35;33.83;;;18.00;;
59492;SDS011;45497;43.996;22.876;2022-12-18T08:50:00;13.17;;;8.30;;
59492;SDS011;45497;43.996;22.876;2022-12-18T08:52:25;12.60;;;7.72;;
59492;SDS011;45497;43.996;22.876;2022-12-18T08:54:51;17.60;;;8.87;;
59492;SDS011;45497;43.996;22.876;2022-12-18T08:57:16;14.93;;;9.47;;
59492;SDS011;45497;43.996;22.876;2022-12-18T08:59:42;15.07;;;9.35;;
59492;SDS011;45497;43.996;22.876;2022-12-18T09:02:10;12.30;;;8.07;;
59492;SDS011;45497;43.996;22.876;2022-12-18T09:04:36;17.27;;;10.23;;
59492;SDS011;45497;43.996;22.876;2022-12-18T09:07:02;18.90;;;10.73;;
59492;SDS011;45497;43.996;22.876;2022-12-18T09:09:27;19.27;;;10.27;;
59492;SDS011;45497;43.996;22.876;2022-12-18T09:11:53;20.75;;;11.70;;
59492;SDS011;45497;43.996;22.876;2022-12-18T09:14:18;17.97;;;9.97;;
59492;SDS011;45497;43.996;22.876;2022-12-18T09:16:44;16.30;;;9.27;;
59492;SDS011;45497;43.996;22.876;2022-12-18T09:19:09;47.25;;;23.23;;
59492;SDS011;45497;43.996;22.876;2022-12-18T09:21:35;18.80;;;11.13;;
59492;SDS011;45497;43.996;22.876;2022-12-18T09:24:04;15.05;;;8.90;;
59492;SDS011;45497;43.996;22.876;2022-12-18T09:26:30;13.52;;;8.80;;
59492;SDS011;45497;43.996;22.876;2022-12-18T09:28:55;14.67;;;8.13;;
59492;SDS011;45497;43.996;22.876;2022-12-18T09:31:21;15.48;;;9.27;;
59492;SDS011;45497;43.996;22.876;2022-12-18T09:33:47;12.63;;;8.00;;
59492;SDS011;45497;43.996;22.876;2022-12-18T09:36:15;16.33;;;11.27;;
59492;SDS011;45497;43.996;22.876;2022-12-18T09:38:42;21.60;;;11.77;;
59492;SDS011;45497;43.996;22.876;2022-12-18T09:43:50;15.90;;;9.20;;
59492;SDS011;45497;43.996;22.876;2022-12-18T09:46:23;16.88;;;9.98;;
59492;SDS011;45497;43.996;22.876;2022-12-18T09:49:02;21.07;;;11.97;;
59492;SDS011;45497;43.996;22.876;2022-12-18T09:51:44;13.30;;;8.90;;
59492;SDS011;45497;43.996;22.876;2022-12-18T09:54:17;14.95;;;8.98;;
59492;SDS011;45497;43.996;22.876;2022-12-18T09:56:46;14.45;;;9.25;;
59492;SDS011;45497;43.996;22.876;2022-12-18T09:59:20;16.48;;;10.55;;
59492;SDS011;45497;43.996;22.876;2022-12-18T10:01:52;12.95;;;7.47;;
59492;SDS011;45497;43.996;22.876;2022-12-18T10:04:17;16.37;;;9.80;;
59492;SDS011;45497;43.996;22.876;2022-12-18T10:06:55;14.57;;;8.07;;
59492;SDS011;45497;43.996;22.876;2022-12-18T10:09:41;12.30;;;7.70;;
59492;SDS011;45497;43.996;22.876;2022-12-18T10:14:57;18.60;;;10.75;;
59492;SDS011;45497;43.996;22.876;2022-12-18T10:17:58;23.17;;;12.90;;
59492;SDS011;45497;43.996;22.876;2022-12-18T10:20:38;26.77;;;14.07;;
59492;SDS011;45497;43.996;22.876;2022-12-18T10:23:25;14.60;;;8.15;;
59492;SDS011;45497;43.996;22.876;2022-12-18T10:26:07;20.80;;;11.27;;
59492;SDS011;45497;43.996;22.876;2022-12-18T10:28:35;13.82;;;9.02;;
59492;SDS011;45497;43.996;22.876;2022-12-18T10:31:07;14.88;;;9.07;;
59492;SDS011;45497;43.996;22.876;2022-12-18T10:33:43;13.70;;;8.13;;
59492;SDS011;45497;43.996;22.876;2022-12-18T10:36:09;15.50;;;9.23;;
59492;SDS011;45497;43.996;22.876;2022-12-18T10:38:35;13.43;;;8.03;;
59492;SDS011;45497;43.996;22.876;2022-12-18T10:41:04;12.67;;;7.10;;
59492;SDS011;45497;43.996;22.876;2022-12-18T10:43:37;13.65;;;7.80;;
59492;SDS011;45497;43.996;22.876;2022-12-18T10:51:06;15.82;;;8.95;;
59492;SDS011;45497;43.996;22.876;2022-12-18T10:53:33;13.25;;;9.10;;
59492;SDS011;45497;43.996;22.876;2022-12-18T10:56:02;16.33;;;8.93;;
59492;SDS011;45497;43.996;22.876;2022-12-18T10:58:30;11.30;;;7.78;;
59492;SDS011;45497;43.996;22.876;2022-12-18T11:01:14;14.43;;;8.70;;
59492;SDS011;45497;43.996;22.876;2022-12-18T11:03:44;14.32;;;8.77;;
59492;SDS011;45497;43.996;22.876;2022-12-18T11:08:46;12.88;;;8.75;;
59492;SDS011;45497;43.996;22.876;2022-12-18T11:11:42;15.98;;;8.65;;
59492;SDS011;45497;43.996;22.876;2022-12-18T11:14:16;17.95;;;11.48;;
59492;SDS011;45497;43.996;22.876;2022-12-18T11:16:46;19.75;;;12.68;;
59492;SDS011;45497;43.996;22.876;2022-12-18T11:22:03;16.05;;;8.63;;
59492;SDS011;45497;43.996;22.876;2022-12-18T11:24:51;16.23;;;9.30;;
59492;SDS011;45497;43.996;22.876;2022-12-18T11:27:18;14.88;;;9.75;;
59492;SDS011;45497;43.996;22.876;2022-12-18T11:29:44;15.50;;;9.43;;
59492;SDS011;45497;43.996;22.876;2022-12-18T11:32:22;12.13;;;8.00;;
59492;SDS011;45497;43.996;22.876;2022-12-18T11:38:11;14.00;;;8.02;;
59492;SDS011;45497;43.996;22.876;2022-12-18T11:40:55;13.02;;;7.45;;
59492;SDS011;45497;43.996;22.876;2022-12-18T11:43:24;12.73;;;8.00;;
59492;SDS011;45497;43.996;22.876;2022-12-18T11:46:02;13.20;;;8.43;;
59492;SDS011;45497;43.996;22.876;2022-12-18T11:48:37;11.65;;;7.60;;
59492;SDS011;45497;43.996;22.876;2022-12-18T11:51:11;12.00;;;6.88;;
59492;SDS011;45497;43.996;22.876;2022-12-18T11:53:43;13.80;;;8.70;;
59492;SDS011;45497;43.996;22.876;2022-12-18T12:05:19;15.43;;;8.43;;
59492;SDS011;45497;43.996;22.876;2022-12-18T12:07:56;12.63;;;8.02;;
59492;SDS011;45497;43.996;22.876;2022-12-18T12:24:18;16.98;;;10.13;;
59492;SDS011;45497;43.996;22.876;2022-12-18T12:30:20;18.33;;;11.45;;
59492;SDS011;45497;43.996;22.876;2022-12-18T12:32:54;18.45;;;9.50;;
59492;SDS011;45497;43.996;22.876;2022-12-18T12:40:46;15.82;;;8.55;;
59492;SDS011;45497;43.996;22.876;2022-12-18T12:45:52;15.45;;;8.35;;
59492;SDS011;45497;43.996;22.876;2022-12-18T12:48:45;17.23;;;9.70;;
59492;SDS011;45497;43.996;22.876;2022-12-18T12:51:21;18.98;;;10.45;;
59492;SDS011;45497;43.996;22.876;2022-12-18T12:53:50;19.83;;;11.45;;
59492;SDS011;45497;43.996;22.876;2022-12-18T12:56:19;18.63;;;10.03;;
59492;SDS011;45497;43.996;22.876;2022-12-18T13:07:47;21.38;;;12.30;;
59492;SDS011;45497;43.996;22.876;2022-12-18T13:10:34;18.65;;;10.02;;
59492;SDS011;45497;43.996;22.876;2022-12-18T13:20:35;17.97;;;11.37;;
59492;SDS011;45497;43.996;22.876;2022-12-18T13:23:19;17.40;;;10.88;;
59492;SDS011;45497;43.996;22.876;2022-12-18T13:25:48;22.42;;;12.15;;
59492;SDS011;45497;43.996;22.876;2022-12-18T13:30:58;35.00;;;16.42;;
59492;SDS011;45497;43.996;22.876;2022-12-18T13:36:09;20.50;;;11.40;;
59492;SDS011;45497;43.996;22.876;2022-12-18T13:38:36;20.52;;;12.23;;
59492;SDS011;45497;43.996;22.876;2022-12-18T13:43:49;15.10;;;9.68;;
59492;SDS011;45497;43.996;22.876;2022-12-18T13:46:17;17.98;;;10.88;;
59492;SDS011;45497;43.996;22.876;2022-12-18T13:51:23;24.38;;;13.95;;
59492;SDS011;45497;43.996;22.876;2022-12-18T13:53:50;22.45;;;12.70;;
59492;SDS011;45497;43.996;22.876;2022-12-18T13:56:23;26.08;;;15.18;;
59492;SDS011;45497;43.996;22.876;2022-12-18T14:01:59;26.05;;;14.48;;
59492;SDS011;45497;43.996;22.876;2022-12-18T14:04:31;26.88;;;14.63;;
59492;SDS011;45497;43.996;22.876;2022-12-18T14:07:19;26.27;;;15.13;;
59492;SDS011;45497;43.996;22.876;2022-12-18T14:09:52;22.88;;;12.43;;
59492;SDS011;45497;43.996;22.876;2022-12-18T14:17:55;20.38;;;12.35;;
59492;SDS011;45497;43.996;22.876;2022-12-18T14:20:24;21.35;;;13.32;;
59492;SDS011;45497;43.996;22.876;2022-12-18T14:22:50;22.03;;;12.37;;
59492;SDS011;45497;43.996;22.876;2022-12-18T14:27:47;30.20;;;16.55;;
59492;SDS011;45497;43.996;22.876;2022-12-18T14:30:30;25.10;;;14.43;;
59492;SDS011;45497;43.996;22.876;2022-12-18T14:33:04;21.95;;;13.00;;
59492;SDS011;45497;43.996;22.876;2022-12-18T14:35:35;22.97;;;13.33;;
59492;SDS011;45497;43.996;22.876;2022-12-18T14:38:23;24.50;;;14.65;;
59492;SDS011;45497;43.996;22.876;2022-12-18T14:41:03;26.08;;;16.13;;
59492;SDS011;45497;43.996;22.876;2022-12-18T14:43:37;24.15;;;15.27;;
59492;SDS011;45497;43.996;22.876;2022-12-18T14:46:05;33.28;;;17.27;;
59492;SDS011;45497;43.996;22.876;2022-12-18T14:48:50;25.60;;;15.50;;
59492;SDS011;45497;43.996;22.876;2022-12-18T14:51:17;21.95;;;12.57;;
59492;SDS011;45497;43.996;22.876;2022-12-18T14:53:46;31.02;;;19.70;;
59492;SDS011;45497;43.996;22.876;2022-12-18T14:58:51;24.27;;;14.57;;
59492;SDS011;45497;43.996;22.876;2022-12-18T15:01:37;34.40;;;20.25;;
59492;SDS011;45497;43.996;22.876;2022-12-18T15:04:23;31.20;;;18.60;;
59492;SDS011;45497;43.996;22.876;2022-12-18T15:07:02;30.60;;;17.25;;
59492;SDS011;45497;43.996;22.876;2022-12-18T15:20:33;36.53;;;21.08;;
59492;SDS011;45497;43.996;22.876;2022-12-18T15:26:11;33.22;;;21.15;;
59492;SDS011;45497;43.996;22.876;2022-12-18T15:34:27;34.23;;;20.57;;
59492;SDS011;45497;43.996;22.876;2022-12-18T15:36:58;32.78;;;18.58;;
59492;SDS011;45497;43.996;22.876;2022-12-18T15:39:25;34.55;;;19.38;;
59492;SDS011;45497;43.996;22.876;2022-12-18T15:41:50;29.63;;;18.03;;
59492;SDS011;45497;43.996;22.876;2022-12-18T15:44:34;42.13;;;27.27;;
59492;SDS011;45497;43.996;22.876;2022-12-18T15:47:00;33.57;;;20.17;;
59492;SDS011;45497;43.996;22.876;2022-12-18T15:49:25;33.00;;;18.43;;
59492;SDS011;45497;43.996;22.876;2022-12-18T15:51:52;37.60;;;22.40;;
59492;SDS011;45497;43.996;22.876;2022-12-18T15:54:19;30.65;;;19.88;;
59492;SDS011;45497;43.996;22.876;2022-12-18T15:57:05;31.20;;;19.42;;
59492;SDS011;45497;43.996;22.876;2022-12-18T15:59:48;43.00;;;27.20;;
59492;SDS011;45497;43.996;22.876;2022-12-18T16:02:18;44.38;;;26.05;;
59492;SDS011;45497;43.996;22.876;2022-12-18T16:04:45;63.13;;;39.03;;
59492;SDS011;45497;43.996;22.876;2022-12-18T16:07:11;72.17;;;43.33;;
59492;SDS011;45497;43.996;22.876;2022-12-18T16:09:37;44.03;;;27.63;;
59492;SDS011;45497;43.996;22.876;2022-12-18T16:12:03;33.23;;;18.70;;
59492;SDS011;45497;43.996;22.876;2022-12-18T16:14:31;36.42;;;20.98;;
59492;SDS011;45497;43.996;22.876;2022-12-18T16:17:01;40.28;;;23.65;;
59492;SDS011;45497;43.996;22.876;2022-12-18T16:19:30;39.50;;;22.02;;
59492;SDS011;45497;43.996;22.876;2022-12-18T16:21:56;50.13;;;29.38;;
59492;SDS011;45497;43.996;22.876;2022-12-18T16:24:24;46.00;;;27.40;;
59492;SDS011;45497;43.996;22.876;2022-12-18T16:26:51;46.53;;;26.07;;
59492;SDS011;45497;43.996;22.876;2022-12-18T16:29:18;46.13;;;27.27;;
59492;SDS011;45497;43.996;22.876;2022-12-18T16:31:45;59.88;;;36.60;;
59492;SDS011;45497;43.996;22.876;2022-12-18T16:34:25;33.33;;;19.52;;
59492;SDS011;45497;43.996;22.876;2022-12-18T16:36:57;33.00;;;19.85;;
59492;SDS011;45497;43.996;22.876;2022-12-18T16:39:24;28.63;;;17.63;;
59492;SDS011;45497;43.996;22.876;2022-12-18T16:41:51;44.60;;;25.25;;
59492;SDS011;45497;43.996;22.876;2022-12-18T16:44:16;52.03;;;32.73;;
59492;SDS011;45497;43.996;22.876;2022-12-18T16:46:43;46.58;;;27.50;;
59492;SDS011;45497;43.996;22.876;2022-12-18T16:49:10;45.60;;;28.23;;
59492;SDS011;45497;43.996;22.876;2022-12-18T16:51:37;44.22;;;26.52;;